CSN3158 ZGGG-ZSAM
Flight info
| Callsign | CSN3158 |
|---|---|
| Flight time | 0h 28m |
| Altitude | 26600 |
| Route | LMN9 LMN G471 XEBUL DCT NUVGA DCT VETIB W155 TEBON TEBON8X |
| Aircraft | A320/M-SDE3FGHIRWY/LB1 |
Departure
| Time | 2026-05-03 22:38 |
|---|---|
| Airport | Guangzhou Baiyun International Airport (ZGGG) |
Arrival
| Time | 2026-05-03 23:06 |
|---|---|
| Airport | Xiamen Gaoqi International Airport (ZSAM) |
| Time | Latitude | Longitude | Altitude | Speed | Heading |
|---|---|---|---|---|---|
| 2026-05-03 22:18 | 23.39089 | 113.30311 | 58 ft | 0 kts | 14° |
| 2026-05-03 22:26 | 23.39086 | 113.30310 | 31 ft | 3 kts | 14° |
| 2026-05-03 22:26 | 23.39060 | 113.30301 | 52 ft | 4 kts | 22° |
| 2026-05-03 22:27 | 23.39037 | 113.30287 | 50 ft | 4 kts | 48° |
| 2026-05-03 22:27 | 23.39028 | 113.30268 | 51 ft | 1 kts | 104° |
| 2026-05-03 22:27 | 23.39028 | 113.30267 | 51 ft | 0 kts | 104° |
| 2026-05-03 22:29 | 23.39025 | 113.30281 | 52 ft | 6 kts | 104° |
| 2026-05-03 22:29 | 23.39014 | 113.30329 | 58 ft | 6 kts | 104° |
| 2026-05-03 22:29 | 23.39001 | 113.30384 | 57 ft | 13 kts | 104° |
| 2026-05-03 22:30 | 23.38973 | 113.30508 | 58 ft | 18 kts | 103° |
| 2026-05-03 22:30 | 23.38943 | 113.30641 | 58 ft | 16 kts | 104° |
| 2026-05-03 22:30 | 23.38873 | 113.30684 | 57 ft | 13 kts | 195° |
| 2026-05-03 22:30 | 23.38758 | 113.30653 | 52 ft | 22 kts | 194° |
| 2026-05-03 22:31 | 23.38595 | 113.30609 | 55 ft | 25 kts | 194° |
| 2026-05-03 22:31 | 23.38420 | 113.30561 | 55 ft | 27 kts | 194° |
| 2026-05-03 22:31 | 23.38236 | 113.30509 | 54 ft | 28 kts | 193° |
| 2026-05-03 22:31 | 23.38042 | 113.30461 | 51 ft | 29 kts | 193° |
| 2026-05-03 22:32 | 23.37840 | 113.30406 | 56 ft | 31 kts | 194° |
| 2026-05-03 22:32 | 23.37682 | 113.30362 | 52 ft | 19 kts | 194° |
| 2026-05-03 22:32 | 23.37631 | 113.30279 | 58 ft | 13 kts | 243° |
| 2026-05-03 22:32 | 23.37547 | 113.30252 | 56 ft | 15 kts | 190° |
| 2026-05-03 22:33 | 23.37422 | 113.30219 | 52 ft | 20 kts | 194° |
| 2026-05-03 22:33 | 23.37286 | 113.30183 | 54 ft | 21 kts | 193° |
| 2026-05-03 22:33 | 23.37135 | 113.30143 | 50 ft | 24 kts | 194° |
| 2026-05-03 22:33 | 23.36952 | 113.30092 | 53 ft | 28 kts | 194° |
| 2026-05-03 22:34 | 23.36801 | 113.30052 | 56 ft | 13 kts | 194° |
| 2026-05-03 22:34 | 23.36732 | 113.30057 | 53 ft | 9 kts | 133° |
| 2026-05-03 22:34 | 23.36714 | 113.30120 | 56 ft | 10 kts | 104° |
| 2026-05-03 22:34 | 23.36693 | 113.30211 | 58 ft | 15 kts | 104° |
| 2026-05-03 22:35 | 23.36665 | 113.30334 | 58 ft | 17 kts | 104° |
| 2026-05-03 22:35 | 23.36643 | 113.30450 | 58 ft | 13 kts | 85° |
| 2026-05-03 22:35 | 23.36711 | 113.30503 | 53 ft | 15 kts | 12° |
| 2026-05-03 22:35 | 23.36830 | 113.30536 | 53 ft | 20 kts | 14° |
| 2026-05-03 22:36 | 23.36957 | 113.30570 | 54 ft | 14 kts | 13° |
| 2026-05-03 22:36 | 23.37007 | 113.30618 | 51 ft | 9 kts | 91° |
| 2026-05-03 22:36 | 23.36993 | 113.30684 | 57 ft | 8 kts | 105° |
| 2026-05-03 22:36 | 23.36979 | 113.30745 | 54 ft | 8 kts | 96° |
| 2026-05-03 22:37 | 23.37011 | 113.30784 | 57 ft | 7 kts | 22° |
| 2026-05-03 22:37 | 23.37052 | 113.30796 | 50 ft | 8 kts | 14° |
| 2026-05-03 22:37 | 23.37250 | 113.30848 | 56 ft | 63 kts | 13° |
| 2026-05-03 22:37 | 23.37891 | 113.31022 | 54 ft | 125 kts | 14° |
| 2026-05-03 22:38 | 23.38891 | 113.31294 | 171 ft | 160 kts | 13° |
| 2026-05-03 22:38 | 23.39874 | 113.31598 | 1039 ft | 145 kts | 15° |
| 2026-05-03 22:38 | 23.40909 | 113.31898 | 1359 ft | 164 kts | 13° |
| 2026-05-03 22:38 | 23.42093 | 113.32200 | 1642 ft | 186 kts | 12° |
| 2026-05-03 22:39 | 23.43445 | 113.32540 | 1860 ft | 216 kts | 12° |
| 2026-05-03 22:39 | 23.44438 | 113.32797 | 2132 ft | 230 kts | 13° |
| 2026-05-03 22:39 | 23.46040 | 113.33223 | 2895 ft | 239 kts | 12° |
| 2026-05-03 22:39 | 23.47674 | 113.33662 | 3724 ft | 245 kts | 12° |
| 2026-05-03 22:40 | 23.49338 | 113.34111 | 4560 ft | 249 kts | 12° |
| 2026-05-03 22:40 | 23.51036 | 113.34570 | 5369 ft | 254 kts | 11° |
| 2026-05-03 22:40 | 23.52779 | 113.35042 | 5769 ft | 260 kts | 11° |
| 2026-05-03 22:40 | 23.54536 | 113.35520 | 5886 ft | 260 kts | 11° |
| 2026-05-03 22:41 | 23.56309 | 113.35984 | 6310 ft | 263 kts | 8° |
| 2026-05-03 22:41 | 23.58107 | 113.36364 | 7192 ft | 264 kts | 6° |
| 2026-05-03 22:41 | 23.59926 | 113.36714 | 7998 ft | 269 kts | 7° |
| 2026-05-03 22:41 | 23.61702 | 113.37485 | 8640 ft | 285 kts | 28° |
| 2026-05-03 22:42 | 23.63158 | 113.39007 | 8855 ft | 305 kts | 54° |
| 2026-05-03 22:42 | 23.63969 | 113.41192 | 8897 ft | 317 kts | 77° |
| 2026-05-03 22:42 | 23.64441 | 113.43550 | 8897 ft | 319 kts | 77° |
| 2026-05-03 22:42 | 23.64927 | 113.45943 | 9441 ft | 325 kts | 77° |
| 2026-05-03 22:43 | 23.65426 | 113.48362 | 10221 ft | 332 kts | 77° |
| 2026-05-03 22:43 | 23.65956 | 113.50903 | 10480 ft | 355 kts | 77° |
| 2026-05-03 22:43 | 23.66528 | 113.53617 | 10687 ft | 379 kts | 76° |
| 2026-05-03 22:43 | 23.67131 | 113.56472 | 11077 ft | 392 kts | 77° |
| 2026-05-03 22:44 | 23.67671 | 113.59412 | 11707 ft | 398 kts | 84° |
| 2026-05-03 22:44 | 23.67744 | 113.62441 | 12342 ft | 402 kts | 94° |
| 2026-05-03 22:44 | 23.67620 | 113.65508 | 12949 ft | 408 kts | 94° |
| 2026-05-03 22:44 | 23.67495 | 113.68620 | 13620 ft | 412 kts | 94° |
| 2026-05-03 22:45 | 23.67379 | 113.71541 | 14183 ft | 416 kts | 94° |
| 2026-05-03 22:45 | 23.67253 | 113.74709 | 14743 ft | 420 kts | 94° |
| 2026-05-03 22:45 | 23.67124 | 113.77902 | 15300 ft | 423 kts | 95° |
| 2026-05-03 22:45 | 23.66726 | 113.87623 | 17096 ft | 432 kts | 95° |
| 2026-05-03 22:46 | 23.66176 | 114.00966 | 19146 ft | 448 kts | 95° |
| 2026-05-03 22:46 | 23.65592 | 114.14755 | 21051 ft | 463 kts | 95° |
| 2026-05-03 22:46 | 23.66002 | 114.28921 | 22776 ft | 478 kts | 72° |
| 2026-05-03 22:46 | 23.74040 | 114.40175 | 24277 ft | 478 kts | 32° |
| 2026-05-03 22:47 | 23.84766 | 114.48988 | 25617 ft | 486 kts | 33° |
| 2026-05-03 22:47 | 23.95615 | 114.57949 | 26728 ft | 494 kts | 33° |
| 2026-05-03 22:47 | 24.06590 | 114.66991 | 26652 ft | 498 kts | 33° |
| 2026-05-03 22:47 | 24.17584 | 114.76084 | 26501 ft | 501 kts | 33° |
| 2026-05-03 22:48 | 24.26434 | 114.87466 | 26514 ft | 510 kts | 71° |
| 2026-05-03 22:48 | 24.27193 | 114.98334 | 26629 ft | 509 kts | 97° |
| 2026-05-03 22:48 | 24.26861 | 115.02178 | 26673 ft | 506 kts | 97° |
| 2026-05-03 22:48 | 24.26536 | 115.06008 | 26661 ft | 505 kts | 97° |
| 2026-05-03 22:49 | 24.26214 | 115.09833 | 26669 ft | 504 kts | 97° |
| 2026-05-03 22:49 | 24.25887 | 115.13658 | 26660 ft | 504 kts | 97° |
| 2026-05-03 22:49 | 24.25557 | 115.17477 | 26660 ft | 504 kts | 97° |
| 2026-05-03 22:49 | 24.25222 | 115.21302 | 26654 ft | 504 kts | 97° |
| 2026-05-03 22:50 | 24.24887 | 115.25125 | 26655 ft | 504 kts | 97° |
| 2026-05-03 22:50 | 24.24550 | 115.28946 | 26647 ft | 504 kts | 97° |
| 2026-05-03 22:50 | 24.24215 | 115.32762 | 26648 ft | 504 kts | 98° |
| 2026-05-03 22:50 | 24.23879 | 115.36590 | 26651 ft | 504 kts | 98° |
| 2026-05-03 22:51 | 24.23542 | 115.40407 | 26646 ft | 504 kts | 98° |
| 2026-05-03 22:51 | 24.22552 | 115.52613 | 26652 ft | 505 kts | 96° |
| 2026-05-03 22:51 | 24.21549 | 115.67926 | 26654 ft | 504 kts | 96° |
| 2026-05-03 22:51 | 24.20451 | 115.83250 | 26655 ft | 503 kts | 97° |
| 2026-05-03 22:52 | 24.19348 | 115.98465 | 26650 ft | 503 kts | 97° |
| 2026-05-03 22:52 | 24.18246 | 116.13514 | 26649 ft | 502 kts | 97° |
| 2026-05-03 22:52 | 24.17966 | 116.17321 | 26651 ft | 502 kts | 96° |
| 2026-05-03 22:52 | 24.17685 | 116.21135 | 26523 ft | 503 kts | 96° |
| 2026-05-03 22:53 | 24.17403 | 116.24948 | 26136 ft | 502 kts | 97° |
| 2026-05-03 22:53 | 24.17119 | 116.28754 | 25752 ft | 501 kts | 97° |
| 2026-05-03 22:53 | 24.16834 | 116.32548 | 25360 ft | 499 kts | 97° |
| 2026-05-03 22:53 | 24.16549 | 116.36321 | 24974 ft | 495 kts | 97° |
| 2026-05-03 22:54 | 24.16266 | 116.40066 | 24588 ft | 493 kts | 97° |
| 2026-05-03 22:54 | 24.15987 | 116.43795 | 24203 ft | 491 kts | 97° |
| 2026-05-03 22:54 | 24.15464 | 116.54879 | 22916 ft | 484 kts | 95° |
| 2026-05-03 22:54 | 24.14996 | 116.69365 | 21120 ft | 470 kts | 95° |
| 2026-05-03 22:55 | 24.14393 | 116.83431 | 19430 ft | 456 kts | 95° |
| 2026-05-03 22:55 | 24.14143 | 116.97150 | 17738 ft | 445 kts | 92° |
| 2026-05-03 22:55 | 24.14148 | 117.10489 | 15936 ft | 432 kts | 92° |
| 2026-05-03 22:55 | 24.14039 | 117.23461 | 14245 ft | 421 kts | 92° |
| 2026-05-03 22:56 | 24.13935 | 117.36091 | 12452 ft | 408 kts | 92° |
| 2026-05-03 22:56 | 24.14290 | 117.48306 | 10701 ft | 396 kts | 74° |
| 2026-05-03 22:56 | 24.17660 | 117.54730 | 9644 ft | 380 kts | 45° |
| 2026-05-03 22:56 | 24.19393 | 117.56790 | 9393 ft | 353 kts | 45° |
| 2026-05-03 22:57 | 24.20983 | 117.58700 | 9264 ft | 327 kts | 45° |
| 2026-05-03 22:57 | 24.22471 | 117.60492 | 9146 ft | 319 kts | 45° |
| 2026-05-03 22:57 | 24.23955 | 117.62272 | 9022 ft | 315 kts | 45° |
| 2026-05-03 22:57 | 24.25455 | 117.64062 | 8899 ft | 314 kts | 45° |
| 2026-05-03 22:58 | 24.26930 | 117.65820 | 8771 ft | 312 kts | 45° |
| 2026-05-03 22:58 | 24.28394 | 117.67568 | 8645 ft | 311 kts | 45° |
| 2026-05-03 22:58 | 24.29836 | 117.69298 | 8379 ft | 313 kts | 45° |
| 2026-05-03 22:58 | 24.31321 | 117.71078 | 7977 ft | 310 kts | 46° |
| 2026-05-03 22:59 | 24.32779 | 117.72828 | 7558 ft | 309 kts | 46° |
| 2026-05-03 22:59 | 24.34208 | 117.74548 | 7040 ft | 302 kts | 46° |
| 2026-05-03 22:59 | 24.35606 | 117.76235 | 6587 ft | 292 kts | 46° |
| 2026-05-03 22:59 | 24.36936 | 117.77839 | 6405 ft | 278 kts | 46° |
| 2026-05-03 23:00 | 24.38210 | 117.79375 | 6274 ft | 267 kts | 46° |
| 2026-05-03 23:00 | 24.39302 | 117.80932 | 6154 ft | 256 kts | 62° |
| 2026-05-03 23:00 | 24.39892 | 117.82743 | 5825 ft | 255 kts | 82° |
| 2026-05-03 23:00 | 24.40043 | 117.84546 | 5347 ft | 261 kts | 86° |
| 2026-05-03 23:01 | 24.40183 | 117.86601 | 4843 ft | 267 kts | 86° |
| 2026-05-03 23:01 | 24.40329 | 117.88650 | 4319 ft | 272 kts | 86° |
| 2026-05-03 23:01 | 24.40481 | 117.90692 | 4132 ft | 262 kts | 86° |
| 2026-05-03 23:01 | 24.40645 | 117.92633 | 4065 ft | 249 kts | 81° |
| 2026-05-03 23:02 | 24.41247 | 117.94366 | 3919 ft | 243 kts | 55° |
| 2026-05-03 23:02 | 24.42272 | 117.95832 | 3638 ft | 242 kts | 50° |
| 2026-05-03 23:02 | 24.43330 | 117.97290 | 3342 ft | 246 kts | 51° |
| 2026-05-03 23:02 | 24.44396 | 117.98772 | 3010 ft | 246 kts | 51° |
| 2026-05-03 23:03 | 24.45424 | 118.00206 | 2746 ft | 233 kts | 51° |
| 2026-05-03 23:03 | 24.46390 | 118.01555 | 2421 ft | 216 kts | 51° |
| 2026-05-03 23:03 | 24.47279 | 118.02795 | 2170 ft | 198 kts | 51° |
| 2026-05-03 23:03 | 24.48098 | 118.03938 | 1906 ft | 185 kts | 51° |
| 2026-05-03 23:04 | 24.48877 | 118.05024 | 1630 ft | 177 kts | 51° |
| 2026-05-03 23:04 | 24.49618 | 118.06058 | 1389 ft | 168 kts | 51° |
| 2026-05-03 23:04 | 24.50317 | 118.07034 | 1171 ft | 158 kts | 51° |
| 2026-05-03 23:04 | 24.50961 | 118.07938 | 886 ft | 142 kts | 52° |
| 2026-05-03 23:05 | 24.51555 | 118.08773 | 711 ft | 136 kts | 51° |
| 2026-05-03 23:05 | 24.52134 | 118.09581 | 528 ft | 133 kts | 52° |
| 2026-05-03 23:05 | 24.52716 | 118.10386 | 354 ft | 134 kts | 51° |
| 2026-05-03 23:05 | 24.53292 | 118.11198 | 198 ft | 135 kts | 51° |
| 2026-05-03 23:06 | 24.53868 | 118.12004 | 55 ft | 126 kts | 52° |
| 2026-05-03 23:06 | 24.54307 | 118.12618 | 53 ft | 77 kts | 52° |
| 2026-05-03 23:06 | 24.54540 | 118.12946 | 51 ft | 40 kts | 52° |
| 2026-05-03 23:06 | 24.54680 | 118.13156 | 51 ft | 27 kts | 65° |
| 2026-05-03 23:07 | 24.54716 | 118.13344 | 50 ft | 18 kts | 81° |
| 2026-05-03 23:07 | 24.54654 | 118.13430 | 48 ft | 14 kts | 142° |
| 2026-05-03 23:07 | 24.54580 | 118.13414 | 50 ft | 12 kts | 227° |
| 2026-05-03 23:07 | 24.54534 | 118.13351 | 50 ft | 10 kts | 233° |
| 2026-05-03 23:08 | 24.54490 | 118.13287 | 51 ft | 14 kts | 232° |
| 2026-05-03 23:08 | 24.54421 | 118.13189 | 52 ft | 16 kts | 232° |
| 2026-05-03 23:08 | 24.54340 | 118.13073 | 51 ft | 22 kts | 232° |
| 2026-05-03 23:08 | 24.54245 | 118.12938 | 51 ft | 23 kts | 231° |
| 2026-05-03 23:09 | 24.54149 | 118.12793 | 52 ft | 21 kts | 233° |
| 2026-05-03 23:09 | 24.54082 | 118.12699 | 52 ft | 9 kts | 232° |
| 2026-05-03 23:09 | 24.54058 | 118.12667 | 55 ft | 1 kts | 232° |
| 2026-05-03 23:09 | 24.54051 | 118.12663 | 52 ft | 2 kts | 201° |
| 2026-05-03 23:10 | 24.54044 | 118.12664 | 53 ft | 0 kts | 171° |
| 2026-05-03 23:10 | 24.54039 | 118.12669 | 54 ft | 1 kts | 141° |
| 2026-05-03 23:10 | 24.54034 | 118.12673 | 54 ft | 0 kts | 142° |